Aérodrome :
LOGIN :

S'inscrire | Disclaimer

   EN    FR    IT 

 










Légende :    VFR   VFR Marginal   IFR   IFR Intensif   IFR Très Intensif
Visi : 
Plafond : 
>= 8 km
>= 3000ft
5 à 8 km
1000 à 3000 ft
1500m à 5 km
500 à 1000 ft
800 à 1500m
200 à 500 ft
< 800m
< 200 ft
Symboles :   Orages  Brouillard  Fortes neiges  Fortes précipitations  Vent > 20 kt
SIGMETs :   Divers  Orages  Givrage  Turbulence  Onde Orograph.  Cendres Volcan.






- Altitude de l'aérodrome : 121 ft
- Code IATA : HUY


EGNJ - Humberside

DERNIER METAR :
  • 090920Z 21009KT 9999 FEW018 SCT026 04/03 Q0998

METARs EXPIRÉS :
  • 090850Z 21008KT 9999 BKN030 03/02 Q0998
  • 090820Z 20007KT 9999 SCT024 01/01 Q0998
  • 090750Z 21007KT 9999 FEW023 01/00 Q0998
  • 090720Z 22006KT CAVOK 01/00 Q0998
  • 090650Z AUTO 23007KT 9999 NCD 02/02 Q0997

TAF TAF EGNJ
Valide du 09 à 09h jusqu'au 09 à 18h UTC


090807Z 0909/0918 22008KT 9999 SCT035
PROB30
TEMPO 0909/0912 8000 BKN012
ATIS : +44 1652 682 020



MET'MAP, la Météo Aéronautique d'un coup d'oeil ! - Copyright ORBIFLY Décembre 2007 - Disclaimer

ORBIFLY MET'MAP TEAM :

Programmation & Développement : Alexandra Zaïnal
Sur une idée originale de : Baudouin d'Aumeries
Assistance à la programmation : Marc-Olivier Méhu
Soutien technique & logistique : Manuel Goepfert

Contact : metmap@orbifly.com




SOURCES & CREDITS :

   NOAA